Time;durP1;ratioP1;P1;durP2;ratioP2;P2;SDS_P1;SDS_P2;PMS_P1;PMS_P2;Temp;Humidity;BMP_temperature;BMP_pressure;BME280_temperature;BME280_humidity;BME280_pressure;Samples;Min_cycle;Max_cycle;Signal;HPM_P1;HPM_P2
2022/03/30 00:01:25;;;;;;;;;;;;;;;9.89;50.03;95281.16;5076941;28;19962;-70
2022/03/30 00:03:50;;;;;;;;;;;;;;;9.92;49.88;95279.88;5075615;28;19977;-69
2022/03/30 00:06:16;;;;;;;;;;;;;;;9.93;50.14;95281.47;5075891;28;20045;-70
2022/03/30 00:08:42;;;;;;;;;;;;;;;9.94;50.70;95277.81;5076071;28;19978;-69
2022/03/30 00:11:08;;;;;;;;;;;;;;;9.95;50.77;95280.22;5075988;28;19953;-69
2022/03/30 00:13:35;;;;;;;;;;;;;;;9.93;49.96;95284.06;5075705;28;20367;-70
2022/03/30 00:16:02;;;;;;;;;;;;;;;9.90;49.88;95282.75;5075919;28;19945;-72
2022/03/30 00:18:28;;;;;;;;;;;;;;;9.88;50.14;95284.81;5075633;28;20329;-72
2022/03/30 00:20:54;;;;;;;;;;;;;;;9.88;50.37;95286.66;5075709;28;19958;-72
2022/03/30 00:23:20;;;;;;;;;;;;;;;9.90;50.38;95292.44;5067342;28;20438;-71
2022/03/30 00:25:46;;;;;;;;;;;;;;;9.88;50.52;95276.97;5075524;28;19947;-71
2022/03/30 00:28:12;;;;;;;;;;;;;;;9.87;51.24;95282.41;5075419;28;19962;-71
2022/03/30 00:30:38;;;;;;;;;;;;;;;9.83;50.85;95282.13;5075574;28;19950;-72
2022/03/30 00:33:04;;;;;;;;;;;;;;;9.82;50.62;95275.28;5075278;28;19964;-71
2022/03/30 00:35:30;;;;;;;;;;;;;;;9.79;50.29;95267.94;5075654;28;19947;-71
2022/03/30 00:37:56;;;;;;;;;;;;;;;9.79;50.69;95272.38;5075214;28;19961;-72
2022/03/30 00:40:22;;;;;;;;;;;;;;;9.78;51.04;95276.81;5075248;28;19952;-72
2022/03/30 00:42:48;;;;;;;;;;;;;;;9.80;50.70;95274.75;5074907;28;19948;-72
2022/03/30 00:45:16;;;;;;;;;;;;;;;9.82;50.83;95261.41;5075473;28;20447;-71
2022/03/30 00:47:42;;;;;;;;;;;;;;;9.81;51.22;95268.50;5074947;28;20322;-71
2022/03/30 00:50:09;;;;;;;;;;;;;;;9.81;51.88;95259.84;5075541;28;19965;-71
2022/03/30 00:52:35;;;;;;;;;;;;;;;9.81;51.41;95254.63;5074957;28;19948;-71
2022/03/30 00:55:02;;;;;;;;;;;;;;;9.79;50.90;95260.09;5074862;28;19958;-72
2022/03/30 00:57:29;;;;;;;;;;;;;;;9.77;52.67;95249.06;5074840;28;19957;-72
2022/03/30 00:59:56;;;;;;;;;;;;;;;9.74;51.42;95245.09;5074860;28;19955;-71
2022/03/30 01:02:23;;;;;;;;;;;;;;;9.74;52.71;95249.53;5074763;28;19961;-71
2022/03/30 01:04:50;;;;;;;;;;;;;;;9.70;51.44;95257.09;5074582;28;19984;-72
2022/03/30 01:07:16;;;;;;;;;;;;;;;9.65;52.22;95240.53;5075105;28;19949;-69
2022/03/30 01:09:42;;;;;;;;;;;;;;;9.63;51.76;95242.59;5074777;28;19954;-69
2022/03/30 01:12:09;;;;;;;;;;;;;;;9.60;52.01;95245.69;5074695;28;19957;-70
2022/03/30 01:14:35;;;;;;;;;;;;;;;9.59;52.92;95237.03;5074465;28;19960;-69
2022/03/30 01:17:01;;;;;;;;;;;;;;;9.61;52.45;95234.19;5074691;28;19948;-69
2022/03/30 01:19:29;;;;;;;;;;;;;;;9.62;52.27;95236.56;5074739;28;19956;-70
2022/03/30 01:21:55;;;;;;;;;;;;;;;9.63;51.90;95232.91;5074049;28;20336;-69
2022/03/30 01:24:21;;;;;;;;;;;;;;;9.62;52.37;95225.31;5074161;28;20058;-69
2022/03/30 01:27:04;;;;;;;;;;;;;;;9.65;52.77;95215.13;5074803;28;19951;-69
2022/03/30 01:32:26;;;;;;;;;;;;;;;9.72;52.80;95199.25;5074355;28;20336;-69
2022/03/30 01:34:53;;;;;;;;;;;;;;;9.74;51.79;95205.84;5074670;28;19963;-69
2022/03/30 01:37:19;;;;;;;;;;;;;;;9.75;52.47;95196.16;5073979;28;19948;-69
2022/03/30 01:39:44;;;;;;;;;;;;;;;9.79;52.38;95196.47;5074079;28;19961;-69
2022/03/30 01:42:10;;;;;;;;;;;;;;;9.81;52.38;95194.41;5074155;28;19995;-70
2022/03/30 01:44:37;;;;;;;;;;;;;;;9.82;52.09;95191.50;5074305;28;19963;-69
2022/03/30 01:47:03;;;;;;;;;;;;;;;9.83;52.56;95185.25;5074052;28;20438;-70
2022/03/30 01:49:29;;;;;;;;;;;;;;;9.85;52.62;95187.63;5073978;28;19956;-70
2022/03/30 01:51:58;;;;;;;;;;;;;;;9.83;52.68;95180.03;5074361;28;19964;-70
2022/03/30 01:54:25;;;;;;;;;;;;;;;9.81;52.91;95178.69;5073009;28;20401;-69
2022/03/30 01:56:52;;;;;;;;;;;;;;;9.81;52.85;95178.69;5074019;28;20328;-69
2022/03/30 01:59:18;;;;;;;;;;;;;;;9.78;52.84;95166.84;5072710;28;19952;-69
2022/03/30 02:01:44;;;;;;;;;;;;;;;9.79;53.10;95165.84;5073712;28;20450;-70
2022/03/30 02:04:18;;;;;;;;;;;;;;;9.78;52.99;95161.63;5073673;28;20350;-69
2022/03/30 02:06:44;;;;;;;;;;;;;;;9.79;52.71;95165.06;5073799;28;19963;-69
2022/03/30 02:09:12;;;;;;;;;;;;;;;9.78;53.16;95161.63;5073922;28;19952;-69
2022/03/30 02:11:38;;;;;;;;;;;;;;;9.77;53.46;95157.44;5073753;28;19951;-69
2022/03/30 02:14:05;;;;;;;;;;;;;;;9.78;53.58;95160.84;5073592;28;19963;-69
2022/03/30 02:16:30;;;;;;;;;;;;;;;9.77;53.11;95154.81;5073611;28;19956;-70
2022/03/30 02:18:56;;;;;;;;;;;;;;;9.76;52.85;95155.84;5073700;28;19952;-69
2022/03/30 02:21:24;;;;;;;;;;;;;;;9.76;53.52;95158.44;5073704;28;19999;-70
2022/03/30 02:23:50;;;;;;;;;;;;;;;9.77;53.42;95161.88;5073765;28;19983;-69
2022/03/30 02:26:16;;;;;;;;;;;;;;;9.73;54.35;95151.09;5073543;28;19947;-70
2022/03/30 02:28:43;;;;;;;;;;;;;;;9.71;54.33;95158.41;5073746;28;20412;-71
2022/03/30 02:31:12;;;;;;;;;;;;;;;9.68;55.13;95159.69;5073561;28;20440;-70
2022/03/30 02:33:39;;;;;;;;;;;;;;;9.66;55.18;95153.09;5073679;28;19954;-70
2022/03/30 02:36:05;;;;;;;;;;;;;;;9.64;55.41;95163.81;5073405;28;20325;-70
2022/03/30 02:38:31;;;;;;;;;;;;;;;9.62;55.23;95152.81;5072310;28;20043;-70
2022/03/30 02:40:57;;;;;;;;;;;;;;;9.60;56.07;95152.25;5073328;28;20324;-70
2022/03/30 02:43:23;;;;;;;;;;;;;;;9.58;55.17;95156.94;5073366;28;19961;-70
2022/03/30 02:45:49;;;;;;;;;;;;;;;9.54;56.23;95148.00;5073354;28;19949;-70
2022/03/30 02:48:17;;;;;;;;;;;;;;;9.53;55.55;95149.00;5073399;28;19965;-69
2022/03/30 02:50:47;;;;;;;;;;;;;;;9.50;57.05;95152.91;5073373;28;19971;-69
2022/03/30 02:53:14;;;;;;;;;;;;;;;9.47;57.12;95144.75;5073271;28;19950;-69
2022/03/30 02:55:40;;;;;;;;;;;;;;;9.32;56.01;95138.31;5073374;28;20333;-69
2022/03/30 02:58:06;;;;;;;;;;;;;;;9.24;58.73;95145.75;5072137;28;19948;-69
2022/03/30 03:00:32;;;;;;;;;;;;;;;9.12;59.99;95136.19;5073279;28;20338;-69
2022/03/30 03:03:00;;;;;;;;;;;;;;;9.04;60.04;95131.38;5073235;28;19957;-69
2022/03/30 03:05:31;;;;;;;;;;;;;;;9.03;59.72;95129.81;5074433;28;20433;-69
2022/03/30 03:07:58;;;;;;;;;;;;;;;9.08;60.94;95142.94;5077432;28;19970;-69
2022/03/30 03:10:24;;;;;;;;;;;;;;;9.08;61.16;95131.69;5077030;28;19959;-70
2022/03/30 03:12:53;;;;;;;;;;;;;;;9.08;59.89;95132.47;5077561;28;19955;-69
2022/03/30 03:15:19;;;;;;;;;;;;;;;9.08;60.98;95135.09;5076947;28;20356;-69
2022/03/30 03:17:45;;;;;;;;;;;;;;;9.07;61.58;95138.75;5076820;28;20048;-69
2022/03/30 03:20:11;;;;;;;;;;;;;;;9.10;61.24;95132.25;5076813;28;19949;-69
2022/03/30 03:22:37;;;;;;;;;;;;;;;9.12;60.86;95133.59;5076869;28;20316;-69
2022/03/30 03:25:04;;;;;;;;;;;;;;;9.14;62.18;95128.91;5076416;28;19969;-70
2022/03/30 03:27:29;;;;;;;;;;;;;;;9.16;62.96;95133.13;5076562;28;19959;-70
2022/03/30 03:29:55;;;;;;;;;;;;;;;9.16;62.42;95133.13;5077147;28;19963;-69
2022/03/30 03:32:21;;;;;;;;;;;;;;;9.16;62.87;95130.50;5076743;28;20012;-72
2022/03/30 03:34:48;;;;;;;;;;;;;;;9.15;62.78;95129.69;5076675;28;19962;-69
2022/03/30 03:37:14;;;;;;;;;;;;;;;9.13;62.93;95129.13;5076603;28;19963;-70
2022/03/30 03:39:40;;;;;;;;;;;;;;;9.14;63.32;95131.53;5076631;28;19968;-70
2022/03/30 03:42:06;;;;;;;;;;;;;;;9.14;62.27;95126.28;5076269;28;20388;-70
2022/03/30 03:44:32;;;;;;;;;;;;;;;9.13;63.49;95127.34;5076427;28;19974;-70
2022/03/30 03:46:58;;;;;;;;;;;;;;;9.14;63.85;95128.91;5076311;28;19960;-69
2022/03/30 03:49:24;;;;;;;;;;;;;;;9.15;64.08;95132.31;5076512;28;19958;-70
2022/03/30 03:51:50;;;;;;;;;;;;;;;9.13;65.13;95121.28;5076341;28;19962;-70
2022/03/30 03:54:16;;;;;;;;;;;;;;;9.13;64.78;95124.72;5076229;28;19950;-70
2022/03/30 03:56:42;;;;;;;;;;;;;;;9.11;65.32;95118.94;5076455;28;20278;-69
2022/03/30 03:59:07;;;;;;;;;;;;;;;9.10;65.52;95119.97;5076157;28;19965;-69
2022/03/30 04:01:34;;;;;;;;;;;;;;;9.07;65.71;95109.19;5075990;28;19959;-70
2022/03/30 04:04:00;;;;;;;;;;;;;;;9.04;65.60;95115.69;5076001;28;19975;-69
2022/03/30 04:06:25;;;;;;;;;;;;;;;9.02;65.48;95116.97;5075923;28;19965;-69
2022/03/30 04:08:51;;;;;;;;;;;;;;;8.99;66.56;95114.81;5075025;28;19955;-69
2022/03/30 04:11:17;;;;;;;;;;;;;;;8.98;66.59;95121.88;5074762;28;19957;-69
2022/03/30 04:13:43;;;;;;;;;;;;;;;8.97;66.39;95115.06;5075681;28;20004;-69
2022/03/30 04:16:09;;;;;;;;;;;;;;;8.94;66.36;95110.31;5075662;28;19958;-69
2022/03/30 04:18:35;;;;;;;;;;;;;;;8.92;67.01;95107.97;5075028;28;19952;-69
2022/03/30 04:21:00;;;;;;;;;;;;;;;8.91;67.25;95108.97;5075694;28;20041;-69
2022/03/30 04:23:26;;;;;;;;;;;;;;;8.90;67.44;95107.41;5074640;28;19959;-69
2022/03/30 04:25:52;;;;;;;;;;;;;;;8.90;67.16;95102.19;5075398;28;19969;-69
2022/03/30 04:28:18;;;;;;;;;;;;;;;8.89;68.02;95105.81;5075707;28;20012;-69
2022/03/30 04:30:44;;;;;;;;;;;;;;;8.87;67.65;95101.84;5075560;28;19953;-69
2022/03/30 04:33:10;;;;;;;;;;;;;;;8.85;68.42;95104.69;5075357;28;20048;-69
2022/03/30 04:35:36;;;;;;;;;;;;;;;8.83;68.85;95100.75;5074248;28;19969;-69
2022/03/30 04:38:02;;;;;;;;;;;;;;;8.82;68.44;95093.91;5075487;28;19977;-69
2022/03/30 04:40:28;;;;;;;;;;;;;;;8.80;69.14;95090.75;5075432;28;19956;-69
2022/03/30 04:42:55;;;;;;;;;;;;;;;8.80;69.35;95093.38;5075189;28;19954;-68
2022/03/30 04:45:21;;;;;;;;;;;;;;;8.79;69.40;95091.81;5075440;28;19970;-69
2022/03/30 04:47:48;;;;;;;;;;;;;;;8.77;69.83;95080.78;5075136;28;19947;-69
2022/03/30 04:50:13;;;;;;;;;;;;;;;8.77;69.65;95092.03;5075087;28;19952;-69
2022/03/30 04:52:40;;;;;;;;;;;;;;;8.76;69.85;95090.47;5074812;28;19978;-70
2022/03/30 04:55:06;;;;;;;;;;;;;;;8.76;69.76;95081.81;5074995;28;19953;-69
2022/03/30 04:57:32;;;;;;;;;;;;;;;8.73;69.69;95081.28;5074957;28;19957;-69
2022/03/30 04:59:58;;;;;;;;;;;;;;;8.72;71.18;95082.31;5075027;28;19955;-69
2022/03/30 05:02:26;;;;;;;;;;;;;;;8.71;70.25;95072.09;5075143;28;20315;-69
2022/03/30 05:04:52;;;;;;;;;;;;;;;8.72;69.89;95078.91;5073641;28;20435;-69
2022/03/30 05:07:18;;;;;;;;;;;;;;;8.71;70.71;95085.97;5073470;28;19983;-69
2022/03/30 05:09:44;;;;;;;;;;;;;;;8.71;69.85;95077.31;5074722;28;19960;-69
2022/03/30 05:12:10;;;;;;;;;;;;;;;8.71;71.18;95075.50;5074510;28;19958;-68
2022/03/30 05:14:36;;;;;;;;;;;;;;;8.71;70.90;95069.47;5057007;28;20424;-69
2022/03/30 05:17:02;;;;;;;;;;;;;;;8.69;70.90;95067.13;5074519;28;20026;-69
2022/03/30 05:19:37;;;;;;;;;;;;;;;8.67;71.29;95065.75;5074413;28;19960;-69
2022/03/30 05:22:04;;;;;;;;;;;;;;;8.65;70.32;95054.75;5074478;28;19963;-69
2022/03/30 05:24:31;;;;;;;;;;;;;;;8.63;69.40;95048.97;5074210;28;20466;-69
2022/03/30 05:26:57;;;;;;;;;;;;;;;8.60;69.54;95058.06;5074262;28;19967;-69
2022/03/30 05:29:23;;;;;;;;;;;;;;;8.59;70.18;95056.50;5074201;28;19960;-68
2022/03/30 05:31:49;;;;;;;;;;;;;;;8.58;70.00;95054.13;5074311;28;19959;-69
2022/03/30 05:34:15;;;;;;;;;;;;;;;8.59;70.19;95058.31;5074147;28;19973;-69
2022/03/30 05:36:41;;;;;;;;;;;;;;;8.55;70.13;95055.41;5073097;28;20393;-69
2022/03/30 05:39:07;;;;;;;;;;;;;;;8.53;70.17;95057.47;5074136;28;20012;-69
2022/03/30 05:41:33;;;;;;;;;;;;;;;8.50;71.54;95058.75;5074289;28;19987;-68
2022/03/30 05:43:59;;;;;;;;;;;;;;;8.49;70.97;95048.53;5074028;28;19977;-69
2022/03/30 05:46:26;;;;;;;;;;;;;;;8.49;71.01;95051.13;5074507;28;19961;-68
2022/03/30 05:48:51;;;;;;;;;;;;;;;8.44;71.31;95049.25;5073833;28;19975;-69
2022/03/30 05:51:18;;;;;;;;;;;;;;;8.39;73.56;95056.94;5073967;28;20385;-69
2022/03/30 05:53:44;;;;;;;;;;;;;;;8.33;74.73;95053.47;5074325;28;19965;-69
2022/03/30 05:56:10;;;;;;;;;;;;;;;8.22;73.15;95043.91;5072792;28;19956;-69
2022/03/30 05:58:36;;;;;;;;;;;;;;;8.16;73.72;95057.09;5073990;28;20347;-69
2022/03/30 06:01:03;;;;;;;;;;;;;;;8.11;73.14;95050.78;5073747;28;19958;-69
2022/03/30 06:03:29;;;;;;;;;;;;;;;8.07;75.07;95054.88;5064150;28;20290;-69
2022/03/30 06:05:55;;;;;;;;;;;;;;;8.03;74.22;95043.34;5074172;28;20030;-69
2022/03/30 06:08:20;;;;;;;;;;;;;;;8.02;74.50;95043.56;5074299;28;20416;-69
2022/03/30 06:10:46;;;;;;;;;;;;;;;7.93;74.78;95046.56;5073723;28;19959;-69
2022/03/30 06:13:12;;;;;;;;;;;;;;;7.92;75.09;95047.59;5073998;28;19954;-69
2022/03/30 06:15:38;;;;;;;;;;;;;;;7.96;73.37;95045.31;5073859;28;19952;-69
2022/03/30 06:18:10;;;;;;;;;;;;;;;8.00;74.98;95043.00;5072980;28;19986;-69
2022/03/30 06:20:36;;;;;;;;;;;;;;;8.05;74.77;95045.72;5073664;28;19955;-69
2022/03/30 06:23:02;;;;;;;;;;;;;;;8.07;74.01;95035.81;5073981;28;20379;-69
2022/03/30 06:25:27;;;;;;;;;;;;;;;8.07;74.00;95038.44;5073313;28;19973;-69
2022/03/30 06:27:53;;;;;;;;;;;;;;;8.08;73.97;95037.41;5073534;28;20035;-69
2022/03/30 06:30:19;;;;;;;;;;;;;;;8.11;74.03;95035.09;5073343;28;19958;-69
2022/03/30 06:32:49;;;;;;;;;;;;;;;8.15;73.59;95038.06;5073812;28;19947;-69
2022/03/30 06:35:16;;;;;;;;;;;;;;;8.19;73.97;95041.78;5073375;28;19957;-69
2022/03/30 06:37:42;;;;;;;;;;;;;;;8.23;73.78;95036.84;5073050;28;19957;-70
2022/03/30 06:40:08;;;;;;;;;;;;;;;8.25;73.90;95040.81;5074818;28;19950;-69
2022/03/30 06:42:35;;;;;;;;;;;;;;;8.26;72.90;95034.56;5077440;28;19955;-69
2022/03/30 06:45:01;;;;;;;;;;;;;;;8.28;73.20;95037.72;5077574;28;19976;-69
2022/03/30 06:47:27;;;;;;;;;;;;;;;8.31;73.80;95044.28;5077445;28;19951;-69
2022/03/30 06:49:55;;;;;;;;;;;;;;;8.32;73.60;95038.06;5077365;28;20410;-69
2022/03/30 06:52:21;;;;;;;;;;;;;;;8.33;74.02;95043.00;5077839;28;19960;-69
2022/03/30 06:54:47;;;;;;;;;;;;;;;8.34;74.00;95039.38;5077241;28;19950;-69
2022/03/30 06:57:13;;;;;;;;;;;;;;;8.36;74.80;95036.53;5077526;28;19959;-69
2022/03/30 06:59:38;;;;;;;;;;;;;;;8.37;75.07;95039.94;5076219;28;19959;-69
2022/03/30 07:02:04;;;;;;;;;;;;;;;8.33;73.89;95023.94;5077211;28;19955;-69
2022/03/30 07:04:31;;;;;;;;;;;;;;;8.31;74.37;95024.19;5076838;28;19972;-69
2022/03/30 07:12:26;;;;;;;;;;;;;;;8.21;74.95;95016.22;5077161;28;19965;-69
2022/03/30 07:14:52;;;;;;;;;;;;;;;8.24;76.17;95023.56;5076243;28;19955;-69
2022/03/30 07:17:18;;;;;;;;;;;;;;;8.24;75.19;95012.31;5076831;28;19954;-69
2022/03/30 07:19:44;;;;;;;;;;;;;;;8.19;75.20;95012.22;5076805;28;19999;-70
2022/03/30 07:22:11;;;;;;;;;;;;;;;8.16;76.30;95016.13;5077006;28;19959;-69
2022/03/30 07:24:37;;;;;;;;;;;;;;;8.13;75.73;95009.56;5076745;28;20301;-69
2022/03/30 07:27:03;;;;;;;;;;;;;;;8.10;78.61;95007.41;5076943;28;19965;-69
2022/03/30 07:29:29;;;;;;;;;;;;;;;8.06;77.47;95001.09;5076868;28;20308;-69
2022/03/30 07:31:55;;;;;;;;;;;;;;;8.07;79.54;95004.50;5075320;28;19979;-69
2022/03/30 07:34:21;;;;;;;;;;;;;;;8.09;76.36;94999.81;5076657;28;19967;-69
2022/03/30 07:36:48;;;;;;;;;;;;;;;8.10;78.78;95004.78;5076775;28;19963;-69
2022/03/30 07:39:14;;;;;;;;;;;;;;;8.10;79.76;94994.34;5075282;28;19950;-69
2022/03/30 07:41:40;;;;;;;;;;;;;;;8.11;78.69;94993.34;5076372;28;19959;-69
2022/03/30 07:44:06;;;;;;;;;;;;;;;8.11;78.09;94997.78;5076386;28;20475;-70
2022/03/30 07:46:32;;;;;;;;;;;;;;;8.09;77.57;95000.63;5076327;28;19970;-72
2022/03/30 07:48:59;;;;;;;;;;;;;;;8.09;78.97;94992.00;5076226;28;19955;-72
2022/03/30 07:51:25;;;;;;;;;;;;;;;8.14;79.80;94995.47;5075333;28;19954;-72
2022/03/30 07:53:50;;;;;;;;;;;;;;;8.20;81.28;94993.72;5075895;28;19956;-72
2022/03/30 07:56:16;;;;;;;;;;;;;;;8.23;78.25;94987.22;5076694;28;20437;-72
2022/03/30 07:58:42;;;;;;;;;;;;;;;8.24;79.94;94992.22;5076209;28;19970;-72
2022/03/30 08:01:08;;;;;;;;;;;;;;;8.29;78.89;94992.31;5076000;28;19954;-72
2022/03/30 08:03:35;;;;;;;;;;;;;;;8.32;78.74;94999.66;5074614;28;20016;-72
2022/03/30 08:06:02;;;;;;;;;;;;;;;8.31;79.49;94998.06;5076322;28;20422;-72
2022/03/30 08:08:28;;;;;;;;;;;;;;;8.29;78.15;94991.50;5075263;28;19958;-72
2022/03/30 08:10:53;;;;;;;;;;;;;;;8.29;79.86;94999.34;5065142;28;19955;-72
2022/03/30 08:13:19;;;;;;;;;;;;;;;8.25;79.85;94991.22;5075940;28;19950;-69
2022/03/30 08:15:45;;;;;;;;;;;;;;;8.29;78.78;94988.88;5076161;28;20016;-69
2022/03/30 08:18:11;;;;;;;;;;;;;;;8.29;80.81;94996.72;5075961;28;19951;-69
2022/03/30 08:23:38;;;;;;;;;;;;;;;8.23;80.69;94997.66;5053454;28;19992;-69
2022/03/30 08:26:04;;;;;;;;;;;;;;;8.27;79.99;94996.97;5070369;28;20490;-69
2022/03/30 08:28:31;;;;;;;;;;;;;;;8.29;81.56;94994.13;5075547;28;19953;-69
2022/03/30 08:30:57;;;;;;;;;;;;;;;8.37;81.02;94998.16;5075589;28;19964;-69
2022/03/30 08:33:26;;;;;;;;;;;;;;;8.41;81.15;94994.06;5074495;28;20023;-69
2022/03/30 08:35:53;;;;;;;;;;;;;;;8.43;79.87;94990.16;5075446;28;19964;-70
2022/03/30 08:38:19;;;;;;;;;;;;;;;8.50;79.93;94990.00;5075762;28;19946;-69
2022/03/30 08:40:45;;;;;;;;;;;;;;;8.58;80.30;94996.66;5075470;28;19959;-69
2022/03/30 08:43:11;;;;;;;;;;;;;;;8.63;79.55;94996.69;5075484;28;20325;-69
2022/03/30 08:45:37;;;;;;;;;;;;;;;8.69;79.28;94991.31;5075333;28;19966;-69
2022/03/30 08:48:04;;;;;;;;;;;;;;;8.72;78.99;94997.88;5075169;28;19959;-69
2022/03/30 08:50:30;;;;;;;;;;;;;;;8.76;79.93;95001.59;5075705;28;19946;-69
2022/03/30 08:53:01;;;;;;;;;;;;;;;8.80;79.60;94997.47;5075166;28;19964;-69
2022/03/30 08:55:27;;;;;;;;;;;;;;;8.85;78.75;94994.91;5074836;28;20340;-69
2022/03/30 08:57:53;;;;;;;;;;;;;;;8.91;78.57;95001.00;5074960;28;20000;-69
2022/03/30 09:00:19;;;;;;;;;;;;;;;8.90;80.13;94997.59;5075115;28;19950;-69
2022/03/30 09:02:55;;;;;;;;;;;;;;;8.87;80.24;94997.28;5074217;28;19959;-69
2022/03/30 09:05:24;;;;;;;;;;;;;;;8.89;78.87;94990.78;5074763;28;19975;-70
2022/03/30 09:07:51;;;;;;;;;;;;;;;8.97;79.63;94996.63;5075440;28;19948;-69
2022/03/30 09:10:18;;;;;;;;;;;;;;;8.99;77.99;94992.75;5074630;28;19952;-69
2022/03/30 09:12:45;;;;;;;;;;;;;;;8.99;78.85;94995.34;5075106;28;19943;-69
2022/03/30 09:15:12;;;;;;;;;;;;;;;8.98;79.54;94992.97;5074695;28;20408;-69
2022/03/30 09:17:39;;;;;;;;;;;;;;;8.99;79.25;94984.91;5074866;28;19948;-69
2022/03/30 09:20:16;;;;;;;;;;;;;;;9.03;80.18;94987.78;5074512;28;19957;-69
2022/03/30 09:22:43;;;;;;;;;;;;;;;9.04;78.56;94992.78;5074678;28;19963;-69
2022/03/30 09:25:11;;;;;;;;;;;;;;;9.01;80.96;94988.06;5074555;28;19968;-69
2022/03/30 09:27:41;;;;;;;;;;;;;;;8.98;80.97;94985.91;5074266;28;20365;-70
2022/03/30 09:30:09;;;;;;;;;;;;;;;8.96;78.48;94981.97;5075024;28;19959;-69
2022/03/30 09:32:35;;;;;;;;;;;;;;;8.91;77.14;94970.41;5074322;28;19953;-69
2022/03/30 09:35:01;;;;;;;;;;;;;;;8.87;80.43;94979.78;5074176;28;19964;-69
2022/03/30 09:37:27;;;;;;;;;;;;;;;8.94;81.55;94985.63;5073233;28;19959;-69
2022/03/30 09:39:54;;;;;;;;;;;;;;;9.07;79.41;94976.63;5074541;28;19984;-69
2022/03/30 09:42:20;;;;;;;;;;;;;;;9.15;80.60;94991.09;5074159;28;19953;-69
2022/03/30 09:44:50;;;;;;;;;;;;;;;9.21;79.07;94982.25;5074187;28;19947;-69
2022/03/30 09:47:16;;;;;;;;;;;;;;;9.28;78.84;94976.84;5072924;28;19963;-69
2022/03/30 09:49:42;;;;;;;;;;;;;;;9.39;79.81;94977.75;5073995;28;19955;-70
2022/03/30 09:52:11;;;;;;;;;;;;;;;9.45;79.92;94977.56;5074208;28;19958;-68
2022/03/30 09:54:38;;;;;;;;;;;;;;;9.46;78.38;94967.88;5072791;28;19949;-70
2022/03/30 09:57:22;;;;;;;;;;;;;;;9.44;79.59;94969.94;5073702;28;20419;-69
2022/03/30 10:00:14;;;;;;;;;;;;;;;9.49;79.42;94965.56;5073597;28;19944;-69
2022/03/30 10:02:45;;;;;;;;;;;;;;;9.59;79.54;94966.69;5066223;28;19985;-69
2022/03/30 10:05:12;;;;;;;;;;;;;;;9.63;79.60;94965.94;5073473;28;19983;-69
2022/03/30 10:07:38;;;;;;;;;;;;;;;9.66;81.87;94964.63;5073903;28;19951;-69
2022/03/30 10:10:05;;;;;;;;;;;;;;;9.67;80.19;94953.94;5073875;28;19954;-69
2022/03/30 10:12:31;;;;;;;;;;;;;;;9.67;79.16;94958.38;5073641;28;19958;-69
2022/03/30 10:14:57;;;;;;;;;;;;;;;9.63;78.81;94952.84;5073248;28;20361;-69
2022/03/30 10:17:24;;;;;;;;;;;;;;;9.66;78.94;94951.56;5073758;28;19957;-69
2022/03/30 10:20:03;;;;;;;;;;;;;;;9.65;78.81;94948.16;5073669;28;19954;-69
2022/03/30 10:22:48;;;;;;;;;;;;;;;9.72;81.41;94948.75;5073593;28;19956;-69
2022/03/30 10:25:32;;;;;;;;;;;;;;;9.89;81.28;94943.41;5073546;28;20401;-69
2022/03/30 10:28:21;;;;;;;;;;;;;;;10.10;79.24;94938.28;5073352;28;20324;-70
2022/03/30 10:30:54;;;;;;;;;;;;;;;10.27;79.91;94938.16;5051813;28;20334;-69
2022/03/30 10:33:29;;;;;;;;;;;;;;;10.39;79.69;94930.91;5073328;28;19963;-69
2022/03/30 10:35:56;;;;;;;;;;;;;;;10.44;77.51;94924.94;5073756;28;19957;-70
2022/03/30 10:38:22;;;;;;;;;;;;;;;10.45;79.11;94929.13;5073549;28;19958;-69
2022/03/30 10:41:04;;;;;;;;;;;;;;;10.43;77.03;94924.13;5073298;28;20035;-70
2022/03/30 10:43:30;;;;;;;;;;;;;;;10.41;77.96;94928.81;5072979;28;19951;-69
2022/03/30 10:46:02;;;;;;;;;;;;;;;10.38;78.16;94926.72;5073240;28;19964;-69
2022/03/30 10:48:28;;;;;;;;;;;;;;;10.34;76.79;94915.16;5073661;28;19962;-71
2022/03/30 10:50:55;;;;;;;;;;;;;;;10.32;76.46;94912.78;5073343;28;19969;-72
2022/03/30 10:53:33;;;;;;;;;;;;;;;10.38;76.36;94913.63;5073421;28;19953;-69
2022/03/30 10:56:14;;;;;;;;;;;;;;;10.46;76.25;94918.38;5073334;28;19955;-70
2022/03/30 10:58:49;;;;;;;;;;;;;;;10.59;76.35;94918.97;5073495;28;20320;-69
2022/03/30 11:01:18;;;;;;;;;;;;;;;10.68;77.04;94920.84;5073126;28;19951;-70
2022/03/30 11:04:11;;;;;;;;;;;;;;;10.73;74.91;94899.91;5050658;28;20439;-69
2022/03/30 11:06:38;;;;;;;;;;;;;;;10.77;75.89;94906.22;5051071;28;20442;-70
2022/03/30 11:09:07;;;;;;;;;;;;;;;10.86;74.76;94897.84;5065052;28;20401;-69
2022/03/30 11:11:40;;;;;;;;;;;;;;;10.91;73.28;94887.38;5073178;28;19956;-71
2022/03/30 11:14:25;;;;;;;;;;;;;;;10.97;75.50;94900.22;5073668;28;19963;-69
2022/03/30 11:16:54;;;;;;;;;;;;;;;10.98;75.22;94882.66;5072690;28;20454;-69
2022/03/30 11:19:26;;;;;;;;;;;;;;;10.95;71.99;94862.97;5073107;28;20401;-69
2022/03/30 11:21:53;;;;;;;;;;;;;;;10.93;72.64;94872.94;5058743;28;20409;-69
2022/03/30 11:24:19;;;;;;;;;;;;;;;10.94;72.03;94865.84;5073065;28;20421;-70
2022/03/30 11:27:06;;;;;;;;;;;;;;;10.93;73.32;94870.31;5057151;28;19976;-69
2022/03/30 11:29:55;;;;;;;;;;;;;;;10.91;73.19;94864.53;5069553;28;19953;-69
2022/03/30 11:32:24;;;;;;;;;;;;;;;10.87;71.24;94852.22;5073495;28;19966;-71
2022/03/30 11:34:54;;;;;;;;;;;;;;;10.85;71.99;94855.09;5076719;28;20398;-69
2022/03/30 11:37:30;;;;;;;;;;;;;;;10.83;73.11;94866.88;5076639;28;19967;-69
2022/03/30 11:40:04;;;;;;;;;;;;;;;10.82;72.73;94865.31;5076157;28;20303;-69
2022/03/30 11:42:30;;;;;;;;;;;;;;;10.83;72.99;94864.25;5076272;28;19952;-69
2022/03/30 11:47:49;;;;;;;;;;;;;;;10.86;72.46;94858.50;5076439;28;20026;-69
2022/03/30 11:50:16;;;;;;;;;;;;;;;10.90;71.90;94843.84;5076675;28;19961;-69
2022/03/30 11:52:44;;;;;;;;;;;;;;;10.92;71.92;94845.16;5075177;28;19955;-69
2022/03/30 11:55:10;;;;;;;;;;;;;;;10.96;70.90;94837.53;5076266;28;19967;-70
2022/03/30 11:57:40;;;;;;;;;;;;;;;11.03;71.73;94845.97;5076174;28;19958;-69
2022/03/30 12:00:09;;;;;;;;;;;;;;;11.08;71.07;94824.97;5075977;28;19977;-69
2022/03/30 12:02:36;;;;;;;;;;;;;;;11.09;70.01;94825.78;5076050;28;19972;-70
2022/03/30 12:05:03;;;;;;;;;;;;;;;11.04;69.79;94821.28;5076307;28;19973;-69
2022/03/30 12:07:32;;;;;;;;;;;;;;;11.00;70.55;94822.84;5075847;28;19972;-69
2022/03/30 12:09:58;;;;;;;;;;;;;;;10.99;69.89;94823.91;5076213;28;19961;-70
2022/03/30 12:12:36;;;;;;;;;;;;;;;10.98;70.26;94819.69;5076081;28;19963;-70
2022/03/30 12:15:02;;;;;;;;;;;;;;;11.04;70.91;94831.78;5076628;28;19951;-70
2022/03/30 12:17:28;;;;;;;;;;;;;;;11.15;70.08;94820.28;5076100;28;19963;-69
2022/03/30 12:19:55;;;;;;;;;;;;;;;11.24;68.93;94812.66;5074519;28;19949;-69
2022/03/30 12:22:22;;;;;;;;;;;;;;;11.29;68.76;94804.00;5075825;28;20027;-69
2022/03/30 12:24:48;;;;;;;;;;;;;;;11.32;69.79;94816.63;5075428;28;19945;-70
2022/03/30 12:27:14;;;;;;;;;;;;;;;11.34;69.50;94806.63;5075657;28;20418;-69
2022/03/30 12:29:40;;;;;;;;;;;;;;;11.38;69.74;94813.72;5075527;28;20425;-70
2022/03/30 12:32:10;;;;;;;;;;;;;;;11.46;68.32;94794.00;5075748;28;19965;-69
2022/03/30 12:34:36;;;;;;;;;;;;;;;11.49;67.61;94797.97;5075643;28;19974;-69
2022/03/30 12:37:05;;;;;;;;;;;;;;;11.46;66.83;94791.38;5075344;28;19961;-71
2022/03/30 12:39:40;;;;;;;;;;;;;;;11.38;68.15;94800.59;5074796;28;19961;-70
2022/03/30 12:42:09;;;;;;;;;;;;;;;11.34;69.04;94817.13;5075260;28;19954;-70
2022/03/30 12:44:36;;;;;;;;;;;;;;;11.25;68.57;94801.09;5075458;28;19954;-70
2022/03/30 12:47:03;;;;;;;;;;;;;;;11.15;69.65;94816.88;5075085;28;20437;-70
2022/03/30 12:49:36;;;;;;;;;;;;;;;11.07;69.91;94817.38;5075423;28;19945;-70
2022/03/30 12:52:05;;;;;;;;;;;;;;;10.98;69.78;94814.47;5075101;28;19961;-70
2022/03/30 12:54:31;;;;;;;;;;;;;;;10.86;72.20;94832.28;5075085;28;19960;-69
2022/03/30 12:56:57;;;;;;;;;;;;;;;10.82;72.10;94824.16;5075014;28;20463;-71
2022/03/30 12:59:24;;;;;;;;;;;;;;;10.76;73.54;94838.28;5075196;28;20073;-70
2022/03/30 13:01:51;;;;;;;;;;;;;;;10.68;73.43;94847.44;5074964;28;19957;-70
2022/03/30 13:04:22;;;;;;;;;;;;;;;10.60;75.49;94847.16;5075067;28;19980;-69
2022/03/30 13:07:07;;;;;;;;;;;;;;;10.58;75.21;94842.16;5074824;28;19979;-69
2022/03/30 13:09:34;;;;;;;;;;;;;;;10.52;74.69;94833.50;5074810;28;19953;-69
2022/03/30 13:12:00;;;;;;;;;;;;;;;10.41;75.18;94834.50;5074804;28;19978;-69